sensor_id;sensor_type;location;lat;lon;timestamp;pressure;altitude;pressure_sealevel;temperature;humidity
45275;BME280;31019;43.780;25.948;2022-10-16T00:00:37;101969.69;;;3.58;100.00
45275;BME280;31019;43.780;25.948;2022-10-16T00:03:05;101974.00;;;3.68;100.00
45275;BME280;31019;43.780;25.948;2022-10-16T00:05:33;101974.09;;;3.36;100.00
45275;BME280;31019;43.780;25.948;2022-10-16T00:08:01;101971.91;;;3.62;100.00
45275;BME280;31019;43.780;25.948;2022-10-16T00:10:28;101979.53;;;3.44;100.00
45275;BME280;31019;43.780;25.948;2022-10-16T00:12:55;101972.72;;;3.63;100.00
45275;BME280;31019;43.780;25.948;2022-10-16T00:15:22;101978.50;;;3.57;100.00
45275;BME280;31019;43.780;25.948;2022-10-16T00:17:49;101985.88;;;3.21;100.00
45275;BME280;31019;43.780;25.948;2022-10-16T00:20:15;101988.31;;;3.76;100.00
45275;BME280;31019;43.780;25.948;2022-10-16T00:22:42;101986.63;;;3.54;100.00
45275;BME280;31019;43.780;25.948;2022-10-16T00:25:10;101993.06;;;3.40;100.00
45275;BME280;31019;43.780;25.948;2022-10-16T00:27:37;101999.94;;;3.20;100.00
45275;BME280;31019;43.780;25.948;2022-10-16T00:30:05;101999.47;;;3.47;100.00
45275;BME280;31019;43.780;25.948;2022-10-16T00:32:33;101988.41;;;3.74;100.00
45275;BME280;31019;43.780;25.948;2022-10-16T00:35:00;102005.88;;;3.75;100.00
45275;BME280;31019;43.780;25.948;2022-10-16T00:37:28;102000.28;;;3.68;100.00
45275;BME280;31019;43.780;25.948;2022-10-16T00:39:55;101990.81;;;3.56;100.00
45275;BME280;31019;43.780;25.948;2022-10-16T00:42:23;102003.81;;;3.58;100.00
45275;BME280;31019;43.780;25.948;2022-10-16T00:44:52;102005.28;;;3.72;100.00
45275;BME280;31019;43.780;25.948;2022-10-16T00:47:25;101992.84;;;3.74;100.00
45275;BME280;31019;43.780;25.948;2022-10-16T00:49:54;101997.47;;;3.81;100.00
45275;BME280;31019;43.780;25.948;2022-10-16T00:52:22;101996.31;;;3.74;100.00
45275;BME280;31019;43.780;25.948;2022-10-16T00:54:49;101999.44;;;3.68;100.00
45275;BME280;31019;43.780;25.948;2022-10-16T00:57:17;102007.09;;;3.50;100.00
45275;BME280;31019;43.780;25.948;2022-10-16T00:59:46;102010.63;;;3.39;100.00
45275;BME280;31019;43.780;25.948;2022-10-16T01:02:15;102005.94;;;3.64;100.00
45275;BME280;31019;43.780;25.948;2022-10-16T01:04:45;102009.78;;;2.74;100.00
45275;BME280;31019;43.780;25.948;2022-10-16T01:07:16;102013.50;;;3.04;100.00
45275;BME280;31019;43.780;25.948;2022-10-16T01:09:57;102010.03;;;2.71;100.00
45275;BME280;31019;43.780;25.948;2022-10-16T01:12:36;102004.69;;;3.26;100.00
45275;BME280;31019;43.780;25.948;2022-10-16T01:15:10;102004.34;;;3.31;100.00
45275;BME280;31019;43.780;25.948;2022-10-16T01:17:43;102014.06;;;3.19;100.00
45275;BME280;31019;43.780;25.948;2022-10-16T01:20:17;102022.25;;;3.26;100.00
45275;BME280;31019;43.780;25.948;2022-10-16T01:22:59;102012.72;;;3.25;100.00
45275;BME280;31019;43.780;25.948;2022-10-16T01:25:36;102017.41;;;3.21;100.00
45275;BME280;31019;43.780;25.948;2022-10-16T01:28:09;102021.53;;;3.03;100.00
45275;BME280;31019;43.780;25.948;2022-10-16T01:30:37;102023.41;;;3.12;100.00
45275;BME280;31019;43.780;25.948;2022-10-16T01:33:11;102015.34;;;3.25;100.00
45275;BME280;31019;43.780;25.948;2022-10-16T01:35:43;102022.47;;;2.58;100.00
45275;BME280;31019;43.780;25.948;2022-10-16T01:38:15;102024.53;;;2.87;100.00
45275;BME280;31019;43.780;25.948;2022-10-16T01:40:49;102024.16;;;3.03;100.00
45275;BME280;31019;43.780;25.948;2022-10-16T01:43:22;102023.41;;;2.57;100.00
45275;BME280;31019;43.780;25.948;2022-10-16T01:45:52;102025.28;;;2.78;100.00
45275;BME280;31019;43.780;25.948;2022-10-16T01:48:21;102027.41;;;2.84;100.00
45275;BME280;31019;43.780;25.948;2022-10-16T01:50:53;102031.06;;;2.49;100.00
45275;BME280;31019;43.780;25.948;2022-10-16T01:53:21;102024.53;;;2.87;100.00
45275;BME280;31019;43.780;25.948;2022-10-16T01:55:49;102030.25;;;2.92;100.00
45275;BME280;31019;43.780;25.948;2022-10-16T01:58:22;102028.75;;;3.10;100.00
45275;BME280;31019;43.780;25.948;2022-10-16T02:00:51;102039.75;;;3.04;100.00
45275;BME280;31019;43.780;25.948;2022-10-16T02:03:20;102033.44;;;2.63;100.00
45275;BME280;31019;43.780;25.948;2022-10-16T02:05:49;102037.38;;;2.58;100.00
45275;BME280;31019;43.780;25.948;2022-10-16T02:08:17;102039.44;;;2.97;100.00
45275;BME280;31019;43.780;25.948;2022-10-16T02:10:44;102042.78;;;3.00;100.00
45275;BME280;31019;43.780;25.948;2022-10-16T02:13:15;102042.81;;;2.77;100.00
45275;BME280;31019;43.780;25.948;2022-10-16T02:15:45;102036.66;;;2.99;100.00
45275;BME280;31019;43.780;25.948;2022-10-16T02:18:11;102033.69;;;2.92;100.00
45275;BME280;31019;43.780;25.948;2022-10-16T02:20:44;102042.84;;;3.09;100.00
45275;BME280;31019;43.780;25.948;2022-10-16T02:23:22;102051.09;;;2.93;100.00
45275;BME280;31019;43.780;25.948;2022-10-16T02:25:52;102049.16;;;2.63;100.00
45275;BME280;31019;43.780;25.948;2022-10-16T02:28:25;102049.28;;;2.62;100.00
45275;BME280;31019;43.780;25.948;2022-10-16T02:30:58;102054.34;;;2.97;100.00
45275;BME280;31019;43.780;25.948;2022-10-16T02:33:27;102056.19;;;2.63;100.00
45275;BME280;31019;43.780;25.948;2022-10-16T02:35:54;102059.38;;;2.78;100.00
45275;BME280;31019;43.780;25.948;2022-10-16T02:38:23;102056.03;;;2.87;100.00
45275;BME280;31019;43.780;25.948;2022-10-16T02:40:52;102063.59;;;2.58;100.00
45275;BME280;31019;43.780;25.948;2022-10-16T02:43:19;102061.19;;;2.77;100.00
45275;BME280;31019;43.780;25.948;2022-10-16T02:45:46;102064.53;;;2.68;100.00
45275;BME280;31019;43.780;25.948;2022-10-16T02:48:14;102070.84;;;2.77;100.00
45275;BME280;31019;43.780;25.948;2022-10-16T02:50:41;102060.47;;;2.75;100.00
45275;BME280;31019;43.780;25.948;2022-10-16T02:53:08;102064.66;;;2.66;100.00
45275;BME280;31019;43.780;25.948;2022-10-16T02:55:34;102068.00;;;2.46;100.00
45275;BME280;31019;43.780;25.948;2022-10-16T02:58:01;102065.75;;;2.64;100.00
45275;BME280;31019;43.780;25.948;2022-10-16T03:00:28;102061.22;;;2.32;100.00
45275;BME280;31019;43.780;25.948;2022-10-16T03:02:54;102063.56;;;2.80;100.00
45275;BME280;31019;43.780;25.948;2022-10-16T03:05:23;102070.59;;;2.57;100.00
45275;BME280;31019;43.780;25.948;2022-10-16T03:07:49;102067.06;;;2.58;100.00
45275;BME280;31019;43.780;25.948;2022-10-16T03:10:25;102068.47;;;2.06;100.00
45275;BME280;31019;43.780;25.948;2022-10-16T03:12:52;102075.28;;;2.31;100.00
45275;BME280;31019;43.780;25.948;2022-10-16T03:15:18;102073.75;;;2.40;100.00
45275;BME280;31019;43.780;25.948;2022-10-16T03:17:45;102073.09;;;2.02;100.00
45275;BME280;31019;43.780;25.948;2022-10-16T03:20:12;102078.13;;;2.50;100.00
45275;BME280;31019;43.780;25.948;2022-10-16T03:22:40;102079.34;;;2.58;100.00
45275;BME280;31019;43.780;25.948;2022-10-16T03:25:07;102079.94;;;2.61;100.00
45275;BME280;31019;43.780;25.948;2022-10-16T03:27:34;102080.13;;;2.02;100.00
45275;BME280;31019;43.780;25.948;2022-10-16T03:30:01;102079.28;;;1.79;100.00
45275;BME280;31019;43.780;25.948;2022-10-16T03:32:28;102085.13;;;1.94;100.00
45275;BME280;31019;43.780;25.948;2022-10-16T03:34:55;102087.09;;;1.68;100.00
45275;BME280;31019;43.780;25.948;2022-10-16T03:37:22;102081.44;;;2.08;100.00
45275;BME280;31019;43.780;25.948;2022-10-16T03:39:50;102091.41;;;1.80;100.00
45275;BME280;31019;43.780;25.948;2022-10-16T03:42:17;102097.31;;;2.06;100.00
45275;BME280;31019;43.780;25.948;2022-10-16T03:44:44;102083.88;;;2.33;100.00
45275;BME280;31019;43.780;25.948;2022-10-16T03:47:10;102095.41;;;2.42;100.00
45275;BME280;31019;43.780;25.948;2022-10-16T03:49:37;102090.03;;;2.10;100.00
45275;BME280;31019;43.780;25.948;2022-10-16T03:52:04;102079.91;;;2.05;100.00
45275;BME280;31019;43.780;25.948;2022-10-16T03:54:30;102088.28;;;1.75;100.00
45275;BME280;31019;43.780;25.948;2022-10-16T03:56:59;102086.09;;;2.04;100.00
45275;BME280;31019;43.780;25.948;2022-10-16T03:59:25;102082.91;;;1.65;100.00
45275;BME280;31019;43.780;25.948;2022-10-16T04:01:52;102084.34;;;1.69;100.00
45275;BME280;31019;43.780;25.948;2022-10-16T04:04:19;102084.38;;;1.80;100.00
45275;BME280;31019;43.780;25.948;2022-10-16T04:06:46;102079.97;;;1.81;100.00
45275;BME280;31019;43.780;25.948;2022-10-16T04:09:13;102088.13;;;1.65;100.00
45275;BME280;31019;43.780;25.948;2022-10-16T04:11:39;102087.72;;;1.82;100.00
45275;BME280;31019;43.780;25.948;2022-10-16T04:14:07;102088.91;;;1.90;100.00
45275;BME280;31019;43.780;25.948;2022-10-16T04:16:34;102097.41;;;2.04;100.00
45275;BME280;31019;43.780;25.948;2022-10-16T04:19:01;102089.97;;;1.87;100.00
45275;BME280;31019;43.780;25.948;2022-10-16T04:21:28;102096.34;;;1.60;100.00
45275;BME280;31019;43.780;25.948;2022-10-16T04:23:54;102093.09;;;1.46;100.00
45275;BME280;31019;43.780;25.948;2022-10-16T04:26:21;102089.44;;;1.35;100.00
45275;BME280;31019;43.780;25.948;2022-10-16T04:28:48;102090.22;;;1.73;100.00
45275;BME280;31019;43.780;25.948;2022-10-16T04:31:16;102084.16;;;1.83;100.00
45275;BME280;31019;43.780;25.948;2022-10-16T04:33:43;102095.44;;;1.84;100.00
45275;BME280;31019;43.780;25.948;2022-10-16T04:36:10;102096.03;;;1.76;100.00
45275;BME280;31019;43.780;25.948;2022-10-16T04:38:37;102099.00;;;1.72;100.00
45275;BME280;31019;43.780;25.948;2022-10-16T04:41:05;102102.09;;;2.12;100.00
45275;BME280;31019;43.780;25.948;2022-10-16T04:43:31;102104.19;;;1.96;100.00
45275;BME280;31019;43.780;25.948;2022-10-16T04:45:58;102112.38;;;1.80;100.00
45275;BME280;31019;43.780;25.948;2022-10-16T04:48:27;102115.50;;;1.96;100.00
45275;BME280;31019;43.780;25.948;2022-10-16T04:50:54;102123.38;;;2.08;100.00
45275;BME280;31019;43.780;25.948;2022-10-16T04:53:21;102120.72;;;1.96;100.00
45275;BME280;31019;43.780;25.948;2022-10-16T04:55:47;102129.84;;;2.26;100.00
45275;BME280;31019;43.780;25.948;2022-10-16T04:58:14;102127.50;;;2.57;100.00
45275;BME280;31019;43.780;25.948;2022-10-16T05:00:41;102132.63;;;2.69;100.00
45275;BME280;31019;43.780;25.948;2022-10-16T05:03:08;102130.97;;;2.80;100.00
45275;BME280;31019;43.780;25.948;2022-10-16T05:05:36;102139.53;;;2.93;100.00
45275;BME280;31019;43.780;25.948;2022-10-16T05:08:03;102134.75;;;2.98;100.00
45275;BME280;31019;43.780;25.948;2022-10-16T05:10:30;102139.06;;;2.88;100.00
45275;BME280;31019;43.780;25.948;2022-10-16T05:12:56;102140.97;;;2.97;100.00
45275;BME280;31019;43.780;25.948;2022-10-16T05:15:23;102147.38;;;3.04;100.00
45275;BME280;31019;43.780;25.948;2022-10-16T05:17:52;102146.41;;;3.05;100.00
45275;BME280;31019;43.780;25.948;2022-10-16T05:20:19;102153.94;;;3.10;100.00
45275;BME280;31019;43.780;25.948;2022-10-16T05:22:48;102162.47;;;3.34;100.00
45275;BME280;31019;43.780;25.948;2022-10-16T05:25:15;102176.19;;;3.38;100.00
45275;BME280;31019;43.780;25.948;2022-10-16T05:27:41;102173.31;;;3.52;100.00
45275;BME280;31019;43.780;25.948;2022-10-16T05:30:09;102175.75;;;3.65;100.00
45275;BME280;31019;43.780;25.948;2022-10-16T05:32:36;102185.28;;;3.45;100.00
45275;BME280;31019;43.780;25.948;2022-10-16T05:35:03;102186.63;;;3.93;100.00
45275;BME280;31019;43.780;25.948;2022-10-16T05:37:30;102184.84;;;4.35;100.00
45275;BME280;31019;43.780;25.948;2022-10-16T05:39:58;102197.31;;;4.33;100.00
45275;BME280;31019;43.780;25.948;2022-10-16T05:42:25;102202.06;;;4.39;100.00
45275;BME280;31019;43.780;25.948;2022-10-16T05:44:51;102198.56;;;4.59;100.00
45275;BME280;31019;43.780;25.948;2022-10-16T05:47:18;102197.66;;;4.70;100.00
45275;BME280;31019;43.780;25.948;2022-10-16T05:49:46;102201.63;;;4.86;100.00
45275;BME280;31019;43.780;25.948;2022-10-16T05:52:13;102197.53;;;5.02;100.00
45275;BME280;31019;43.780;25.948;2022-10-16T05:54:40;102194.25;;;5.20;100.00
45275;BME280;31019;43.780;25.948;2022-10-16T05:57:08;102202.97;;;5.20;100.00
45275;BME280;31019;43.780;25.948;2022-10-16T05:59:34;102208.16;;;5.41;100.00
45275;BME280;31019;43.780;25.948;2022-10-16T06:02:02;102208.31;;;5.59;100.00
45275;BME280;31019;43.780;25.948;2022-10-16T06:04:29;102203.63;;;5.82;100.00
45275;BME280;31019;43.780;25.948;2022-10-16T06:06:58;102207.81;;;6.04;100.00
45275;BME280;31019;43.780;25.948;2022-10-16T06:09:25;102217.00;;;6.10;100.00
45275;BME280;31019;43.780;25.948;2022-10-16T06:11:52;102221.84;;;6.24;100.00
45275;BME280;31019;43.780;25.948;2022-10-16T06:14:21;102222.88;;;6.60;100.00
45275;BME280;31019;43.780;25.948;2022-10-16T06:16:47;102219.84;;;6.55;100.00
45275;BME280;31019;43.780;25.948;2022-10-16T06:19:14;102230.63;;;6.72;100.00
45275;BME280;31019;43.780;25.948;2022-10-16T06:21:41;102229.09;;;6.79;100.00
45275;BME280;31019;43.780;25.948;2022-10-16T06:24:09;102238.47;;;7.01;100.00
45275;BME280;31019;43.780;25.948;2022-10-16T06:26:36;102232.78;;;7.51;100.00
45275;BME280;31019;43.780;25.948;2022-10-16T06:29:03;102233.09;;;7.48;100.00
45275;BME280;31019;43.780;25.948;2022-10-16T06:31:32;102244.22;;;8.05;100.00
45275;BME280;31019;43.780;25.948;2022-10-16T06:33:59;102243.84;;;7.82;100.00
45275;BME280;31019;43.780;25.948;2022-10-16T06:36:26;102242.50;;;7.78;100.00
45275;BME280;31019;43.780;25.948;2022-10-16T06:38:54;102240.88;;;8.21;100.00
45275;BME280;31019;43.780;25.948;2022-10-16T06:41:22;102240.28;;;8.45;100.00
45275;BME280;31019;43.780;25.948;2022-10-16T06:43:49;102246.94;;;9.09;100.00
45275;BME280;31019;43.780;25.948;2022-10-16T06:46:19;102239.34;;;9.23;100.00
45275;BME280;31019;43.780;25.948;2022-10-16T06:48:48;102241.59;;;9.44;100.00
45275;BME280;31019;43.780;25.948;2022-10-16T06:51:16;102241.03;;;9.74;100.00
45275;BME280;31019;43.780;25.948;2022-10-16T06:53:45;102237.72;;;10.13;100.00
45275;BME280;31019;43.780;25.948;2022-10-16T06:56:14;102243.91;;;10.30;100.00
45275;BME280;31019;43.780;25.948;2022-10-16T06:58:41;102244.81;;;10.86;100.00
45275;BME280;31019;43.780;25.948;2022-10-16T07:01:09;102245.41;;;11.75;100.00
45275;BME280;31019;43.780;25.948;2022-10-16T07:03:36;102246.81;;;12.32;100.00
45275;BME280;31019;43.780;25.948;2022-10-16T07:06:07;102246.16;;;11.84;100.00
45275;BME280;31019;43.780;25.948;2022-10-16T07:08:35;102246.28;;;12.36;100.00
45275;BME280;31019;43.780;25.948;2022-10-16T07:11:03;102242.13;;;13.01;100.00
45275;BME280;31019;43.780;25.948;2022-10-16T07:13:33;102249.63;;;12.98;100.00
45275;BME280;31019;43.780;25.948;2022-10-16T07:16:04;102240.13;;;13.40;100.00
45275;BME280;31019;43.780;25.948;2022-10-16T07:18:31;102237.78;;;13.30;100.00
45275;BME280;31019;43.780;25.948;2022-10-16T07:21:04;102243.44;;;13.78;100.00
45275;BME280;31019;43.780;25.948;2022-10-16T07:23:31;102238.09;;;13.78;100.00
45275;BME280;31019;43.780;25.948;2022-10-16T07:25:58;102243.63;;;14.19;100.00
45275;BME280;31019;43.780;25.948;2022-10-16T07:28:25;102245.34;;;14.55;100.00
45275;BME280;31019;43.780;25.948;2022-10-16T07:30:52;102245.56;;;15.30;100.00
45275;BME280;31019;43.780;25.948;2022-10-16T07:33:19;102237.25;;;15.11;100.00
45275;BME280;31019;43.780;25.948;2022-10-16T07:35:50;102254.09;;;15.53;100.00
45275;BME280;31019;43.780;25.948;2022-10-16T07:38:21;102232.94;;;15.78;100.00
45275;BME280;31019;43.780;25.948;2022-10-16T07:41:00;102241.13;;;15.64;100.00
45275;BME280;31019;43.780;25.948;2022-10-16T07:43:30;102242.88;;;16.11;100.00
45275;BME280;31019;43.780;25.948;2022-10-16T07:45:57;102248.47;;;16.23;100.00
45275;BME280;31019;43.780;25.948;2022-10-16T07:48:26;102241.44;;;16.35;100.00
45275;BME280;31019;43.780;25.948;2022-10-16T07:50:57;102244.38;;;17.12;100.00
45275;BME280;31019;43.780;25.948;2022-10-16T07:53:25;102240.78;;;17.38;100.00
45275;BME280;31019;43.780;25.948;2022-10-16T07:55:57;102247.50;;;17.09;100.00
45275;BME280;31019;43.780;25.948;2022-10-16T07:58:24;102242.22;;;16.82;100.00
45275;BME280;31019;43.780;25.948;2022-10-16T08:00:50;102244.56;;;17.62;100.00
45275;BME280;31019;43.780;25.948;2022-10-16T08:03:20;102240.69;;;17.58;100.00
45275;BME280;31019;43.780;25.948;2022-10-16T08:05:47;102237.63;;;17.86;100.00
45275;BME280;31019;43.780;25.948;2022-10-16T08:08:15;102247.59;;;17.72;100.00
45275;BME280;31019;43.780;25.948;2022-10-16T08:10:44;102245.38;;;18.26;100.00
45275;BME280;31019;43.780;25.948;2022-10-16T08:13:11;102243.47;;;17.76;100.00
45275;BME280;31019;43.780;25.948;2022-10-16T08:15:40;102242.69;;;18.26;100.00
45275;BME280;31019;43.780;25.948;2022-10-16T08:18:33;102244.94;;;18.72;100.00
45275;BME280;31019;43.780;25.948;2022-10-16T08:21:00;102253.44;;;19.13;97.78
45275;BME280;31019;43.780;25.948;2022-10-16T08:23:28;102248.84;;;19.13;90.18
45275;BME280;31019;43.780;25.948;2022-10-16T08:26:02;102252.53;;;17.82;94.90
45275;BME280;31019;43.780;25.948;2022-10-16T08:28:31;102255.19;;;18.39;98.03
45275;BME280;31019;43.780;25.948;2022-10-16T08:31:05;102250.03;;;19.17;86.20
45275;BME280;31019;43.780;25.948;2022-10-16T08:33:38;102244.84;;;19.83;79.55
45275;BME280;31019;43.780;25.948;2022-10-16T08:36:05;102246.69;;;19.71;81.75
45275;BME280;31019;43.780;25.948;2022-10-16T08:38:47;102256.38;;;18.68;73.06
45275;BME280;31019;43.780;25.948;2022-10-16T08:42:04;102255.94;;;20.28;66.69
45275;BME280;31019;43.780;25.948;2022-10-16T08:48:57;102253.81;;;20.89;62.51
45275;BME280;31019;43.780;25.948;2022-10-16T08:51:53;102252.03;;;21.35;58.11
45275;BME280;31019;43.780;25.948;2022-10-16T08:54:33;102251.59;;;21.26;59.63
45275;BME280;31019;43.780;25.948;2022-10-16T08:57:11;102252.53;;;19.19;60.87
45275;BME280;31019;43.780;25.948;2022-10-16T09:03:15;102251.56;;;22.68;53.52
45275;BME280;31019;43.780;25.948;2022-10-16T09:06:02;102253.75;;;22.32;49.16
45275;BME280;31019;43.780;25.948;2022-10-16T09:08:41;102248.63;;;22.53;53.27
45275;BME280;31019;43.780;25.948;2022-10-16T09:11:15;102248.09;;;22.00;52.61
45275;BME280;31019;43.780;25.948;2022-10-16T09:13:54;102256.69;;;21.11;54.65
45275;BME280;31019;43.780;25.948;2022-10-16T09:16:31;102258.72;;;21.73;52.84
45275;BME280;31019;43.780;25.948;2022-10-16T09:19:13;102263.25;;;21.56;54.37
45275;BME280;31019;43.780;25.948;2022-10-16T09:21:55;102248.09;;;22.00;53.22
45275;BME280;31019;43.780;25.948;2022-10-16T09:24:41;102259.41;;;20.99;55.26
45275;BME280;31019;43.780;25.948;2022-10-16T09:27:35;102256.88;;;21.62;53.84
45275;BME280;31019;43.780;25.948;2022-10-16T09:30:15;102251.69;;;21.89;49.99
45275;BME280;31019;43.780;25.948;2022-10-16T09:32:52;102242.50;;;22.24;50.60
45275;BME280;31019;43.780;25.948;2022-10-16T09:35:46;102241.69;;;21.89;50.86
45275;BME280;31019;43.780;25.948;2022-10-16T09:38:34;102248.81;;;22.12;50.70
45275;BME280;31019;43.780;25.948;2022-10-16T09:41:03;102232.59;;;23.07;50.77
45275;BME280;31019;43.780;25.948;2022-10-16T09:43:54;102232.00;;;23.27;44.53
45275;BME280;31019;43.780;25.948;2022-10-16T09:46:41;102233.66;;;22.45;47.59
45275;BME280;31019;43.780;25.948;2022-10-16T09:49:22;102236.28;;;23.23;45.64
45275;BME280;31019;43.780;25.948;2022-10-16T09:51:51;102228.97;;;23.50;44.62
45275;BME280;31019;43.780;25.948;2022-10-16T09:54:22;102225.09;;;23.41;42.30
45275;BME280;31019;43.780;25.948;2022-10-16T09:56:49;102214.53;;;23.18;46.45
45275;BME280;31019;43.780;25.948;2022-10-16T09:59:22;102206.25;;;23.84;44.50
45275;BME280;31019;43.780;25.948;2022-10-16T10:01:55;102213.72;;;23.17;46.08
45275;BME280;31019;43.780;25.948;2022-10-16T10:04:25;102214.06;;;25.23;43.45
45275;BME280;31019;43.780;25.948;2022-10-16T10:07:01;102205.28;;;23.41;43.12
45275;BME280;31019;43.780;25.948;2022-10-16T10:09:29;102204.94;;;24.29;42.33
45275;BME280;31019;43.780;25.948;2022-10-16T10:11:59;102207.66;;;24.29;42.43
45275;BME280;31019;43.780;25.948;2022-10-16T10:14:29;102205.91;;;23.75;42.94
45275;BME280;31019;43.780;25.948;2022-10-16T10:17:12;102210.13;;;22.90;42.82
45275;BME280;31019;43.780;25.948;2022-10-16T10:19:42;102208.34;;;22.56;45.48
45275;BME280;31019;43.780;25.948;2022-10-16T10:22:31;102204.28;;;24.49;42.14
45275;BME280;31019;43.780;25.948;2022-10-16T10:30:37;102206.78;;;21.88;44.24
45275;BME280;31019;43.780;25.948;2022-10-16T10:33:20;102209.75;;;21.41;44.43
45275;BME280;31019;43.780;25.948;2022-10-16T10:35:58;102198.78;;;22.93;44.10
45275;BME280;31019;43.780;25.948;2022-10-16T10:38:40;102199.19;;;23.83;41.54
45275;BME280;31019;43.780;25.948;2022-10-16T10:41:27;102196.75;;;24.23;42.30
45275;BME280;31019;43.780;25.948;2022-10-16T10:44:05;102197.50;;;23.76;45.02
45275;BME280;31019;43.780;25.948;2022-10-16T10:46:35;102192.31;;;23.43;42.06
45275;BME280;31019;43.780;25.948;2022-10-16T10:49:25;102194.66;;;24.88;39.94
45275;BME280;31019;43.780;25.948;2022-10-16T10:52:05;102185.50;;;23.99;39.49
45275;BME280;31019;43.780;25.948;2022-10-16T10:54:39;102195.38;;;24.16;40.80
45275;BME280;31019;43.780;25.948;2022-10-16T10:57:10;102188.69;;;23.64;40.67
45275;BME280;31019;43.780;25.948;2022-10-16T11:02:50;102187.59;;;23.60;42.26
45275;BME280;31019;43.780;25.948;2022-10-16T11:05:33;102187.53;;;23.01;41.63
45275;BME280;31019;43.780;25.948;2022-10-16T11:08:09;102183.53;;;23.36;42.20
45275;BME280;31019;43.780;25.948;2022-10-16T11:10:44;102176.22;;;24.38;39.44
45275;BME280;31019;43.780;25.948;2022-10-16T11:13:21;102175.78;;;24.14;40.69
45275;BME280;31019;43.780;25.948;2022-10-16T11:15:55;102183.25;;;23.91;40.01
45275;BME280;31019;43.780;25.948;2022-10-16T11:18:27;102186.63;;;23.44;41.96
45275;BME280;31019;43.780;25.948;2022-10-16T11:21:03;102184.09;;;24.39;38.90
45275;BME280;31019;43.780;25.948;2022-10-16T11:23:33;102177.28;;;24.37;39.75
45275;BME280;31019;43.780;25.948;2022-10-16T11:26:08;102179.28;;;23.45;40.50
45275;BME280;31019;43.780;25.948;2022-10-16T11:28:42;102174.34;;;25.06;39.84
45275;BME280;31019;43.780;25.948;2022-10-16T11:31:17;102172.69;;;23.95;41.05
45275;BME280;31019;43.780;25.948;2022-10-16T11:33:49;102169.53;;;24.56;40.68
45275;BME280;31019;43.780;25.948;2022-10-16T11:36:25;102173.31;;;25.28;38.93
45275;BME280;31019;43.780;25.948;2022-10-16T11:38:58;102153.47;;;25.99;39.00
45275;BME280;31019;43.780;25.948;2022-10-16T11:41:29;102167.97;;;24.70;39.21
45275;BME280;31019;43.780;25.948;2022-10-16T11:44:23;102175.41;;;25.10;40.29
45275;BME280;31019;43.780;25.948;2022-10-16T11:47:04;102169.47;;;25.08;37.38
45275;BME280;31019;43.780;25.948;2022-10-16T11:49:36;102170.81;;;25.06;37.32
45275;BME280;31019;43.780;25.948;2022-10-16T11:52:10;102158.38;;;25.66;37.26
45275;BME280;31019;43.780;25.948;2022-10-16T11:54:43;102167.72;;;24.24;39.73
45275;BME280;31019;43.780;25.948;2022-10-16T11:57:15;102161.38;;;25.39;37.85
45275;BME280;31019;43.780;25.948;2022-10-16T11:59:46;102167.34;;;25.67;37.06
45275;BME280;31019;43.780;25.948;2022-10-16T12:02:30;102166.81;;;25.39;39.00
45275;BME280;31019;43.780;25.948;2022-10-16T12:05:06;102167.50;;;24.88;37.53
45275;BME280;31019;43.780;25.948;2022-10-16T12:07:46;102163.50;;;22.44;41.62
45275;BME280;31019;43.780;25.948;2022-10-16T12:10:23;102162.91;;;22.58;43.23
45275;BME280;31019;43.780;25.948;2022-10-16T12:12:51;102172.53;;;24.59;39.62
45275;BME280;31019;43.780;25.948;2022-10-16T12:15:22;102180.97;;;24.63;38.54
45275;BME280;31019;43.780;25.948;2022-10-16T12:17:53;102173.16;;;24.24;38.40
45275;BME280;31019;43.780;25.948;2022-10-16T12:20:30;102181.25;;;22.78;43.74
45275;BME280;31019;43.780;25.948;2022-10-16T12:23:02;102187.34;;;24.41;39.69
45275;BME280;31019;43.780;25.948;2022-10-16T12:25:31;102180.84;;;25.00;39.91
45275;BME280;31019;43.780;25.948;2022-10-16T12:28:04;102180.56;;;24.39;37.78
45275;BME280;31019;43.780;25.948;2022-10-16T12:30:34;102176.09;;;24.17;38.22
45275;BME280;31019;43.780;25.948;2022-10-16T12:33:03;102181.03;;;23.56;39.57
45275;BME280;31019;43.780;25.948;2022-10-16T12:35:33;102182.19;;;24.40;37.23
45275;BME280;31019;43.780;25.948;2022-10-16T12:38:15;102185.69;;;24.83;38.67
45275;BME280;31019;43.780;25.948;2022-10-16T12:40:44;102182.69;;;24.32;39.81
45275;BME280;31019;43.780;25.948;2022-10-16T12:43:35;102178.13;;;24.37;39.70
45275;BME280;31019;43.780;25.948;2022-10-16T12:46:05;102182.88;;;23.23;39.54
45275;BME280;31019;43.780;25.948;2022-10-16T12:48:39;102178.38;;;23.61;40.34
45275;BME280;31019;43.780;25.948;2022-10-16T12:51:21;102178.28;;;24.20;39.15
45275;BME280;31019;43.780;25.948;2022-10-16T12:54:00;102187.53;;;22.18;42.13
45275;BME280;31019;43.780;25.948;2022-10-16T12:56:37;102178.13;;;22.86;42.17
45275;BME280;31019;43.780;25.948;2022-10-16T12:59:19;102181.47;;;24.50;38.22
45275;BME280;31019;43.780;25.948;2022-10-16T13:02:01;102187.25;;;24.63;38.38
45275;BME280;31019;43.780;25.948;2022-10-16T13:04:50;102182.22;;;23.38;39.85
45275;BME280;31019;43.780;25.948;2022-10-16T13:07:38;102192.72;;;23.89;39.06
45275;BME280;31019;43.780;25.948;2022-10-16T13:10:16;102193.38;;;22.93;39.21
45275;BME280;31019;43.780;25.948;2022-10-16T13:13:12;102185.88;;;22.78;40.82
45275;BME280;31019;43.780;25.948;2022-10-16T13:15:58;102186.97;;;23.26;41.87